Time;durP1;ratioP1;P1;durP2;ratioP2;P2;SDS_P1;SDS_P2;PMS_P1;PMS_P2;Temp;Humidity;BMP_temperature;BMP_pressure;BME280_temperature;BME280_humidity;BME280_pressure;Samples;Min_cycle;Max_cycle;Signal;HPM_P1;HPM_P2
2023/11/20 00:01:52;;;;;;;8.10;6.40;;;;;;;-1.18;100.00;98688.40;109570;1253;74596;-68
2023/11/20 00:04:19;;;;;;;7.80;6.40;;;;;;;-1.19;100.00;98689.53;109614;1251;67737;-68
2023/11/20 00:06:45;;;;;;;8.50;6.30;;;;;;;-1.21;100.00;98687.43;109630;1250;71573;-68
2023/11/20 00:09:12;;;;;;;6.90;5.70;;;;;;;-1.21;100.00;98683.41;109544;1251;60814;-68
2023/11/20 00:11:39;;;;;;;7.30;6.30;;;;;;;-1.20;100.00;98685.78;109697;1251;58917;-67
2023/11/20 00:14:06;;;;;;;5.70;5.10;;;;;;;-1.19;100.00;98684.83;109610;1251;59799;-68
2023/11/20 00:16:33;;;;;;;6.00;5.40;;;;;;;-1.20;100.00;98682.84;109620;1251;66373;-67
2023/11/20 00:19:00;;;;;;;7.50;5.90;;;;;;;-1.22;100.00;98685.06;109667;1251;71436;-68
2023/11/20 00:21:26;;;;;;;7.40;5.00;;;;;;;-1.24;100.00;98686.09;109651;1256;58955;-67
2023/11/20 00:23:53;;;;;;;5.70;4.80;;;;;;;-1.28;100.00;98684.93;109685;1254;59010;-67
2023/11/20 00:26:19;;;;;;;9.10;5.10;;;;;;;-1.30;100.00;98684.98;109606;1250;74469;-68
2023/11/20 00:28:47;;;;;;;7.50;5.00;;;;;;;-1.32;100.00;98682.15;109567;1256;67927;-67
2023/11/20 00:31:14;;;;;;;6.20;5.00;;;;;;;-1.32;100.00;98683.86;109622;1251;71432;-68
2023/11/20 00:33:43;;;;;;;5.40;4.50;;;;;;;-1.31;100.00;98683.82;109568;1251;59355;-68
2023/11/20 00:36:09;;;;;;;5.70;4.90;;;;;;;-1.31;100.00;98679.29;109709;1251;60219;-68
2023/11/20 00:38:36;;;;;;;6.30;5.50;;;;;;;-1.32;100.00;98678.99;109594;1251;73613;-67
2023/11/20 00:41:04;;;;;;;5.60;4.90;;;;;;;-1.33;100.00;98674.91;109625;1251;58964;-67
2023/11/20 00:43:33;;;;;;;5.70;4.80;;;;;;;-1.34;100.00;98673.95;109648;1251;71083;-66
2023/11/20 00:46:00;;;;;;;6.60;4.60;;;;;;;-1.35;100.00;98674.20;109637;1250;59199;-67
2023/11/20 00:48:27;;;;;;;5.80;5.10;;;;;;;-1.36;100.00;98671.66;109576;1251;60167;-66
2023/11/20 00:50:56;;;;;;;7.30;4.70;;;;;;;-1.36;100.00;98668.36;109678;1252;73794;-67
2023/11/20 00:53:23;;;;;;;6.40;4.90;;;;;;;-1.34;100.00;98667.34;109682;1251;66533;-67
2023/11/20 00:55:50;;;;;;;8.30;5.50;;;;;;;-1.34;100.00;98669.77;109604;1252;72640;-67
2023/11/20 00:58:17;;;;;;;5.50;5.00;;;;;;;-1.36;100.00;98665.21;109671;1251;59537;-66
2023/11/20 01:00:43;;;;;;;6.30;5.00;;;;;;;-1.38;100.00;98665.73;109668;1254;59073;-66
2023/11/20 01:03:10;;;;;;;7.40;5.50;;;;;;;-1.40;100.00;98665.17;109551;1254;74499;-68
2023/11/20 01:05:37;;;;;;;5.50;4.70;;;;;;;-1.41;100.00;98666.96;109624;1250;66446;-68
2023/11/20 01:08:04;;;;;;;10.00;5.90;;;;;;;-1.41;100.00;98661.58;109604;1251;72628;-67
2023/11/20 01:10:31;;;;;;;7.80;5.40;;;;;;;-1.41;100.00;98658.26;109593;1251;59585;-67
2023/11/20 01:12:57;;;;;;;6.70;5.30;;;;;;;-1.41;100.00;98660.40;109648;1250;59120;-67
2023/11/20 01:15:28;;;;;;;7.50;6.10;;;;;;;-1.42;100.00;98661.18;109672;1251;74669;-67
2023/11/20 01:17:56;;;;;;;6.20;5.00;;;;;;;-1.42;100.00;98660.66;109701;1251;66486;-68
2023/11/20 01:20:22;;;;;;;8.20;5.80;;;;;;;-1.43;100.00;98655.65;109636;1251;72718;-67
2023/11/20 01:22:49;;;;;;;5.50;4.90;;;;;;;-1.44;100.00;98654.91;109508;1251;58999;-67
2023/11/20 01:25:15;;;;;;;6.30;5.70;;;;;;;-1.44;100.00;98650.73;109680;1251;59053;-67
2023/11/20 01:27:42;;;;;;;6.40;5.70;;;;;;;-1.44;100.00;98649.49;109681;1251;74971;-67
2023/11/20 01:30:09;;;;;;;6.90;6.20;;;;;;;-1.44;100.00;98650.39;109619;1250;66330;-67
2023/11/20 01:32:36;;;;;;;6.80;5.60;;;;;;;-1.47;100.00;98648.12;109619;1250;72544;-68
2023/11/20 01:35:04;;;;;;;7.90;5.90;;;;;;;-1.50;100.00;98640.20;109568;1251;60881;-67
2023/11/20 01:37:30;;;;;;;7.60;6.80;;;;;;;-1.52;100.00;98639.15;109625;1251;58863;-67
2023/11/20 01:39:57;;;;;;;7.20;5.80;;;;;;;-1.53;100.00;98635.70;109637;1251;74369;-70
2023/11/20 01:42:23;;;;;;;7.10;5.90;;;;;;;-1.51;100.00;98636.86;109658;1251;68225;-68
2023/11/20 01:44:50;;;;;;;7.40;5.90;;;;;;;-1.51;100.00;98638.92;109631;1251;72629;-67
2023/11/20 01:47:17;;;;;;;7.10;5.60;;;;;;;-1.52;100.00;98640.04;109636;1251;59603;-68
2023/11/20 01:49:43;;;;;;;6.70;5.60;;;;;;;-1.52;100.00;98641.77;109613;1251;58837;-68
2023/11/20 01:52:10;;;;;;;8.90;6.80;;;;;;;-1.52;100.00;98641.08;109657;1251;59367;-68
2023/11/20 01:54:36;;;;;;;7.70;5.60;;;;;;;-1.52;100.00;98642.66;109637;1251;67826;-68
2023/11/20 01:57:03;;;;;;;6.70;6.00;;;;;;;-1.53;100.00;98640.43;109654;1251;71689;-67
2023/11/20 01:59:30;;;;;;;6.90;6.20;;;;;;;-1.53;100.00;98640.77;109598;1251;60912;-68
2023/11/20 02:01:56;;;;;;;7.60;6.30;;;;;;;-1.53;100.00;98636.77;109532;1252;58938;-67
2023/11/20 02:04:23;;;;;;;9.30;6.00;;;;;;;-1.52;100.00;98636.53;109622;1251;74674;-66
2023/11/20 02:06:50;;;;;;;7.80;6.40;;;;;;;-1.52;100.00;98636.71;109661;1254;65739;-68
2023/11/20 02:09:17;;;;;;;6.70;6.00;;;;;;;-1.53;100.00;98638.32;109535;1253;71052;-68
2023/11/20 02:11:45;;;;;;;8.40;7.00;;;;;;;-1.54;100.00;98636.67;109489;1250;59244;-67
2023/11/20 02:14:12;;;;;;;7.00;6.20;;;;;;;-1.53;100.00;98639.42;109409;1251;59024;-67
2023/11/20 02:16:39;;;;;;;7.70;6.10;;;;;;;-1.55;100.00;98637.95;109653;1253;74636;-67
2023/11/20 02:19:13;;;;;;;8.60;6.20;;;;;;;-1.52;100.00;98637.45;109597;1251;67579;-67
2023/11/20 02:21:41;;;;;;;9.50;7.40;;;;;;;-1.53;100.00;98635.55;109507;1251;71146;-67
2023/11/20 02:24:08;;;;;;;7.10;6.10;;;;;;;-1.53;100.00;98633.36;109651;1250;60298;-68
2023/11/20 02:26:58;;;;;;;7.40;6.50;;;;;;;-1.55;100.00;98635.55;109650;1250;60184;-67
2023/11/20 02:29:36;;;;;;;7.80;5.80;;;;;;;-1.56;100.00;98639.44;109436;1251;73253;-67
2023/11/20 02:32:02;;;;;;;8.40;6.30;;;;;;;-1.55;100.00;98640.06;109625;1253;67766;-67
2023/11/20 02:34:29;;;;;;;7.20;6.40;;;;;;;-1.55;100.00;98635.39;109628;1251;72652;-67
2023/11/20 02:36:59;;;;;;;8.10;6.50;;;;;;;-1.56;100.00;98630.03;109498;1251;59465;-68
2023/11/20 02:39:26;;;;;;;7.60;6.80;;;;;;;-1.57;100.00;98633.48;109681;1251;58926;-67
2023/11/20 02:41:52;;;;;;;8.50;6.10;;;;;;;-1.58;100.00;98637.36;109656;1251;74642;-68
2023/11/20 02:44:19;;;;;;;8.60;6.40;;;;;;;-1.61;100.00;98635.29;109642;1251;58943;-66
2023/11/20 02:46:45;;;;;;;8.40;6.40;;;;;;;-1.62;100.00;98631.78;109671;1251;59059;-68
2023/11/20 02:49:13;;;;;;;7.30;6.20;;;;;;;-1.62;100.00;98630.54;109488;1251;59016;-68
2023/11/20 02:51:39;;;;;;;7.40;6.10;;;;;;;-1.63;100.00;98631.84;109651;1251;58847;-67
2023/11/20 02:54:06;;;;;;;7.50;6.10;;;;;;;-1.64;100.00;98627.57;109662;1251;74846;-68
2023/11/20 02:56:33;;;;;;;7.30;6.30;;;;;;;-1.65;100.00;98625.70;109539;1251;67799;-67
2023/11/20 02:58:59;;;;;;;7.90;6.40;;;;;;;-1.67;100.00;98621.17;109657;1251;71209;-67
2023/11/20 03:01:26;;;;;;;7.30;5.70;;;;;;;-1.69;100.00;98621.67;109633;1251;59589;-67
2023/11/20 03:03:53;;;;;;;6.90;5.70;;;;;;;-1.69;100.00;98623.43;109627;1251;60117;-67
2023/11/20 03:06:20;;;;;;;7.20;6.30;;;;;;;-1.69;100.00;98624.42;109660;1250;74461;-67
2023/11/20 03:08:47;;;;;;;6.80;6.10;;;;;;;-1.66;100.00;98619.73;109629;1250;67962;-68
2023/11/20 03:11:14;;;;;;;7.70;6.60;;;;;;;-1.66;100.00;98615.50;109523;1253;72657;-67
2023/11/20 03:13:41;;;;;;;8.30;6.40;;;;;;;-1.66;100.00;98614.31;109679;1251;59609;-68
2023/11/20 03:16:07;;;;;;;9.20;7.00;;;;;;;-1.67;100.00;98614.75;109626;1251;60381;-67
2023/11/20 03:18:38;;;;;;;7.80;6.80;;;;;;;-1.67;100.00;98610.57;109560;1251;73676;-67
2023/11/20 03:21:06;;;;;;;7.50;6.70;;;;;;;-1.67;100.00;98608.96;109626;1251;67009;-67
2023/11/20 03:23:32;;;;;;;7.50;6.60;;;;;;;-1.66;100.00;98609.08;109621;1251;72766;-67
2023/11/20 03:25:59;;;;;;;8.80;6.40;;;;;;;-1.64;100.00;98614.17;109642;1251;58981;-67
2023/11/20 03:28:25;;;;;;;7.90;6.20;;;;;;;-1.64;100.00;98608.20;109627;1251;58972;-68
2023/11/20 03:30:51;;;;;;;8.40;7.10;;;;;;;-1.64;100.00;98607.53;109660;1251;59108;-67
2023/11/20 03:33:18;;;;;;;7.70;6.90;;;;;;;-1.65;100.00;98602.59;109622;1251;66705;-67
2023/11/20 03:35:45;;;;;;;7.30;6.40;;;;;;;-1.66;100.00;98604.23;109636;1251;58965;-67
2023/11/20 03:38:11;;;;;;;7.70;6.50;;;;;;;-1.65;100.00;98600.67;109624;1251;59062;-67
2023/11/20 03:40:38;;;;;;;11.00;7.90;;;;;;;-1.64;100.00;98596.45;109673;1251;60580;-68
2023/11/20 03:43:04;;;;;;;8.50;7.00;;;;;;;-1.64;100.00;98593.13;109692;1251;74676;-68
2023/11/20 03:45:31;;;;;;;8.30;6.50;;;;;;;-1.66;100.00;98593.27;109658;1251;67781;-68
2023/11/20 03:47:58;;;;;;;8.80;7.40;;;;;;;-1.67;100.00;98590.26;109597;1251;74708;-67
2023/11/20 03:50:24;;;;;;;8.80;7.90;;;;;;;-1.69;100.00;98594.03;109651;1250;58976;-67
2023/11/20 03:52:51;;;;;;;8.30;6.50;;;;;;;-1.71;100.00;98594.52;109675;1251;58867;-67
2023/11/20 03:55:17;;;;;;;7.40;6.60;;;;;;;-1.71;100.00;98591.61;109614;1250;73415;-69
2023/11/20 03:57:47;;;;;;;7.40;6.30;;;;;;;-1.72;100.00;98586.94;109647;1251;67890;-68
2023/11/20 04:00:14;;;;;;;8.00;7.10;;;;;;;-1.73;100.00;98587.50;109592;1251;72684;-69
2023/11/20 04:02:41;;;;;;;7.10;6.40;;;;;;;-1.75;100.00;98585.26;109682;1251;59021;-68
2023/11/20 04:05:09;;;;;;;12.30;6.70;;;;;;;-1.77;100.00;98577.77;109651;1250;60329;-68
2023/11/20 04:07:36;;;;;;;10.30;8.00;;;;;;;-1.80;100.00;98577.31;109516;1251;74503;-67
2023/11/20 04:10:04;;;;;;;8.20;7.20;;;;;;;-1.81;100.00;98578.24;109670;1251;67719;-69
2023/11/20 04:12:31;;;;;;;7.80;6.60;;;;;;;-1.80;100.00;98575.23;109592;1251;71542;-68
2023/11/20 04:14:58;;;;;;;8.80;6.60;;;;;;;-1.80;100.00;98573.65;109660;1251;59823;-67
2023/11/20 04:17:24;;;;;;;8.80;7.90;;;;;;;-1.80;100.00;98578.85;109539;1251;60151;-67
2023/11/20 04:19:51;;;;;;;10.30;6.70;;;;;;;-1.80;100.00;98579.55;109629;1250;74645;-66
2023/11/20 04:22:18;;;;;;;8.50;7.60;;;;;;;-1.81;100.00;98578.94;109559;1251;67988;-66
2023/11/20 04:24:45;;;;;;;8.50;6.80;;;;;;;-1.81;100.00;98578.10;109644;1251;59183;-66
2023/11/20 04:27:11;;;;;;;8.10;7.30;;;;;;;-1.80;100.00;98574.75;109590;1251;61103;-66
2023/11/20 04:29:38;;;;;;;9.90;6.60;;;;;;;-1.81;100.00;98571.80;109676;1251;59175;-66
2023/11/20 04:32:04;;;;;;;9.50;8.20;;;;;;;-1.80;100.00;98576.13;109587;1251;59460;-66
2023/11/20 04:34:31;;;;;;;9.10;7.90;;;;;;;-1.81;100.00;98570.97;109688;1251;66673;-67
2023/11/20 04:36:57;;;;;;;9.10;8.00;;;;;;;-1.83;100.00;98570.11;109573;1251;72652;-66
2023/11/20 04:39:24;;;;;;;8.40;7.60;;;;;;;-1.85;100.00;98568.98;109650;1250;59523;-66
2023/11/20 04:41:50;;;;;;;8.50;7.40;;;;;;;-1.85;100.00;98569.83;109667;1250;58861;-66
2023/11/20 04:44:17;;;;;;;9.30;8.30;;;;;;;-1.83;100.00;98567.27;109658;1251;58965;-67
2023/11/20 04:46:43;;;;;;;8.30;7.30;;;;;;;-1.79;100.00;98564.39;109654;1251;58925;-66
2023/11/20 04:49:10;;;;;;;8.40;7.50;;;;;;;-1.78;100.00;98567.75;109595;1251;59084;-64
2023/11/20 04:51:36;;;;;;;10.70;8.00;;;;;;;-1.78;100.00;98565.39;109638;1251;59552;-68
2023/11/20 04:54:03;;;;;;;9.40;8.00;;;;;;;-1.80;100.00;98562.20;109680;1251;58935;-67
2023/11/20 04:56:31;;;;;;;10.80;8.10;;;;;;;-1.82;100.00;98557.63;109649;1251;74503;-67
2023/11/20 04:58:58;;;;;;;8.80;7.50;;;;;;;-1.82;100.00;98557.09;109655;1250;67648;-66
2023/11/20 05:01:26;;;;;;;8.70;7.80;;;;;;;-1.81;100.00;98557.22;109619;1251;71687;-67
2023/11/20 05:03:52;;;;;;;8.60;7.50;;;;;;;-1.81;100.00;98556.16;109622;1250;59461;-68
2023/11/20 05:06:19;;;;;;;9.60;8.30;;;;;;;-1.82;100.00;98559.55;109662;1251;59665;-67
2023/11/20 05:08:46;;;;;;;8.60;7.70;;;;;;;-1.82;100.00;98557.98;109409;1251;73306;-67
2023/11/20 05:11:13;;;;;;;9.20;7.20;;;;;;;-1.80;100.00;98558.52;109657;1250;59103;-67
2023/11/20 05:13:39;;;;;;;9.50;7.90;;;;;;;-1.77;100.00;98557.44;109613;1251;72587;-67
2023/11/20 05:16:06;;;;;;;9.10;7.90;;;;;;;-1.75;100.00;98560.11;109572;1250;61208;-66
2023/11/20 05:18:33;;;;;;;8.50;7.50;;;;;;;-1.74;100.00;98554.78;109686;1250;60086;-67
2023/11/20 05:21:00;;;;;;;10.30;8.30;;;;;;;-1.75;100.00;98555.55;109700;1250;74435;-66
2023/11/20 05:23:27;;;;;;;9.80;8.70;;;;;;;-1.79;100.00;98554.16;109577;1250;67630;-70
2023/11/20 05:25:55;;;;;;;8.80;7.90;;;;;;;-1.83;100.00;98554.25;109691;1250;71616;-69
2023/11/20 05:28:22;;;;;;;9.30;8.10;;;;;;;-1.84;100.00;98555.22;109630;1250;61433;-68
2023/11/20 05:30:49;;;;;;;9.20;7.70;;;;;;;-1.83;100.00;98554.61;109607;1250;59989;-66
2023/11/20 05:33:15;;;;;;;8.30;7.40;;;;;;;-1.81;100.00;98557.08;109623;1249;74501;-73
2023/11/20 05:35:43;;;;;;;9.00;7.70;;;;;;;-1.81;100.00;98554.98;109597;1250;66612;-72
2023/11/20 05:38:09;;;;;;;9.00;8.10;;;;;;;-1.80;100.00;98554.03;109662;1251;72668;-71
2023/11/20 05:40:36;;;;;;;9.20;8.20;;;;;;;-1.81;100.00;98556.91;109634;1250;60945;-71
2023/11/20 05:43:03;;;;;;;9.80;7.60;;;;;;;-1.83;100.00;98551.79;109629;1250;60400;-71
2023/11/20 05:45:30;;;;;;;8.20;7.40;;;;;;;-1.84;100.00;98553.11;109659;1250;74672;-70
2023/11/20 05:47:56;;;;;;;10.90;7.70;;;;;;;-1.85;100.00;98552.66;109691;1251;59004;-72
2023/11/20 05:50:23;;;;;;;8.20;7.40;;;;;;;-1.88;100.00;98551.44;109711;1250;58926;-72
2023/11/20 05:52:51;;;;;;;9.30;8.40;;;;;;;-1.90;100.00;98549.39;109589;1251;59342;-72
2023/11/20 05:55:17;;;;;;;9.30;8.20;;;;;;;-1.90;100.00;98547.48;109682;1250;60310;-69
2023/11/20 05:57:44;;;;;;;9.50;8.60;;;;;;;-1.90;100.00;98549.92;109593;1250;73464;-68
2023/11/20 06:00:11;;;;;;;11.40;9.20;;;;;;;-1.90;100.00;98551.08;109619;1250;68958;-71
2023/11/20 06:02:38;;;;;;;8.80;7.90;;;;;;;-1.88;100.00;98552.18;109619;1250;70978;-70
2023/11/20 06:05:05;;;;;;;11.40;9.90;;;;;;;-1.86;100.00;98556.71;109577;1250;59659;-72
2023/11/20 06:07:36;;;;;;;11.60;9.50;;;;;;;-1.83;100.00;98551.65;109563;1250;60077;-72
2023/11/20 06:10:03;;;;;;;9.20;8.00;;;;;;;-1.80;100.00;98549.88;109693;1250;74440;-71
2023/11/20 06:12:30;;;;;;;7.50;6.80;;;;;;;-1.79;100.00;98547.88;109678;1250;67766;-74
2023/11/20 06:14:56;;;;;;;9.20;8.30;;;;;;;-1.79;100.00;98548.40;109556;1251;72441;-73
2023/11/20 06:17:24;;;;;;;9.50;7.90;;;;;;;-1.78;100.00;98551.23;109618;1250;59608;-75
2023/11/20 06:19:51;;;;;;;9.50;7.70;;;;;;;-1.77;100.00;98557.96;109615;1251;60540;-72
2023/11/20 06:22:17;;;;;;;7.70;6.90;;;;;;;-1.75;100.00;98558.20;109621;1250;74359;-74
2023/11/20 06:24:44;;;;;;;9.90;8.90;;;;;;;-1.74;100.00;98564.83;109661;1251;66910;-75
2023/11/20 06:27:10;;;;;;;10.50;8.50;;;;;;;-1.73;100.00;98559.02;109663;1251;71430;-66
2023/11/20 06:29:38;;;;;;;10.10;8.90;;;;;;;-1.72;100.00;98558.47;109626;1251;59234;-68
2023/11/20 06:32:06;;;;;;;10.80;8.90;;;;;;;-1.70;100.00;98557.42;109618;1250;59542;-68
2023/11/20 06:34:35;;;;;;;9.70;8.70;;;;;;;-1.66;100.00;98554.54;109572;1250;75133;-67
2023/11/20 06:37:01;;;;;;;9.70;8.80;;;;;;;-1.64;100.00;98561.53;109587;1251;68088;-67
2023/11/20 06:39:28;;;;;;;10.50;8.60;;;;;;;-1.64;100.00;98564.63;109504;1250;72656;-67
2023/11/20 06:41:55;;;;;;;13.70;8.40;;;;;;;-1.66;100.00;98570.66;109642;1250;59423;-67
2023/11/20 06:44:21;;;;;;;11.20;9.20;;;;;;;-1.67;100.00;98566.92;109584;1250;60015;-67
2023/11/20 06:46:51;;;;;;;10.90;9.00;;;;;;;-1.69;100.00;98561.20;109623;1250;74479;-67
2023/11/20 06:49:19;;;;;;;10.50;9.40;;;;;;;-1.70;100.00;98566.14;109567;1250;67680;-67
2023/11/20 06:51:45;;;;;;;9.70;8.70;;;;;;;-1.72;100.00;98564.70;109640;1250;71397;-67
2023/11/20 06:54:12;;;;;;;11.00;9.00;;;;;;;-1.74;100.00;98565.89;109572;1253;60859;-67
2023/11/20 06:56:38;;;;;;;9.90;8.90;;;;;;;-1.72;100.00;98561.43;109668;1250;60108;-68
2023/11/20 06:59:05;;;;;;;11.60;8.80;;;;;;;-1.70;100.00;98562.45;109682;1250;73409;-67
2023/11/20 07:01:31;;;;;;;10.10;9.10;;;;;;;-1.68;100.00;98565.28;109630;1251;66585;-67
2023/11/20 07:03:59;;;;;;;10.70;9.30;;;;;;;-1.67;100.00;98561.02;109617;1250;71267;-68
2023/11/20 07:06:26;;;;;;;10.80;8.90;;;;;;;-1.66;100.00;98567.35;109609;1250;59906;-67
2023/11/20 07:08:54;;;;;;;10.60;9.30;;;;;;;-1.64;100.00;98562.69;109639;1250;60147;-67
2023/11/20 07:11:21;;;;;;;12.70;10.20;;;;;;;-1.62;100.00;98562.15;109679;1250;73714;-67
2023/11/20 07:13:47;;;;;;;10.90;9.30;;;;;;;-1.59;100.00;98559.56;109659;1251;67794;-67
2023/11/20 07:16:14;;;;;;;11.60;9.70;;;;;;;-1.58;100.00;98558.55;109607;1250;72466;-67
2023/11/20 07:18:41;;;;;;;12.90;10.70;;;;;;;-1.58;100.00;98559.77;109620;1250;59351;-66
2023/11/20 07:21:11;;;;;;;10.30;8.80;;;;;;;-1.56;100.00;98562.61;109640;1250;58878;-68
2023/11/20 07:23:37;;;;;;;10.20;8.50;;;;;;;-1.54;100.00;98561.73;109679;1250;74442;-68
2023/11/20 07:26:04;;;;;;;9.30;8.10;;;;;;;-1.51;100.00;98561.02;109620;1250;66489;-66
2023/11/20 07:28:30;;;;;;;10.00;8.60;;;;;;;-1.48;100.00;98561.64;109670;1250;72610;-66
2023/11/20 07:30:57;;;;;;;10.10;9.10;;;;;;;-1.46;100.00;98557.95;109667;1250;59247;-66
2023/11/20 07:33:24;;;;;;;10.80;9.30;;;;;;;-1.44;100.00;98554.84;109631;1250;58967;-66
2023/11/20 07:35:51;;;;;;;11.50;9.70;;;;;;;-1.42;100.00;98553.30;109673;1250;73344;-66
2023/11/20 07:38:18;;;;;;;10.30;8.70;;;;;;;-1.39;100.00;98552.60;109640;1250;66423;-67
2023/11/20 07:40:45;;;;;;;9.50;8.50;;;;;;;-1.41;100.00;98549.95;109617;1250;70157;-66
2023/11/20 07:43:11;;;;;;;9.50;8.60;;;;;;;-1.43;100.00;98552.86;109641;1250;59704;-66
2023/11/20 07:45:38;;;;;;;10.90;8.50;;;;;;;-1.43;100.00;98551.45;109680;1250;58923;-67
2023/11/20 07:48:06;;;;;;;8.50;7.60;;;;;;;-1.43;100.00;98546.98;109671;1250;73615;-66
2023/11/20 07:50:33;;;;;;;9.90;8.80;;;;;;;-1.44;100.00;98549.47;109693;1250;67739;-66
2023/11/20 07:53:00;;;;;;;10.00;8.90;;;;;;;-1.46;100.00;98553.95;109622;1250;71250;-66
2023/11/20 07:55:26;;;;;;;9.20;8.10;;;;;;;-1.46;100.00;98550.13;109619;1250;61119;-66
2023/11/20 07:57:53;;;;;;;9.20;8.20;;;;;;;-1.43;100.00;98554.45;109657;1251;58899;-66
2023/11/20 08:00:21;;;;;;;10.40;8.20;;;;;;;-1.40;100.00;98548.97;109673;1250;74467;-67
2023/11/20 08:02:48;;;;;;;9.50;8.60;;;;;;;-1.36;100.00;98547.80;109652;1250;67851;-66
2023/11/20 08:05:18;;;;;;;10.70;9.10;;;;;;;-1.32;100.00;98548.58;109670;1251;71414;-66
2023/11/20 08:07:45;;;;;;;11.10;8.30;;;;;;;-1.30;100.00;98546.13;109571;1250;61036;-67
2023/11/20 08:10:12;;;;;;;9.80;8.00;;;;;;;-1.31;100.00;98541.64;109674;1250;60159;-66
2023/11/20 08:12:39;;;;;;;8.70;7.90;;;;;;;-1.29;100.00;98543.61;109644;1250;74458;-66
2023/11/20 08:15:06;;;;;;;9.10;8.00;;;;;;;-1.26;100.00;98544.43;109666;1251;66424;-66
2023/11/20 08:17:33;;;;;;;8.50;7.60;;;;;;;-1.25;100.00;98546.40;109710;1250;71392;-66
2023/11/20 08:20:00;;;;;;;11.10;9.20;;;;;;;-1.26;100.00;98545.96;109645;1251;58925;-66
2023/11/20 08:22:26;;;;;;;9.00;8.00;;;;;;;-1.27;100.00;98549.20;109651;1250;58942;-66
2023/11/20 08:24:54;;;;;;;10.00;9.00;;;;;;;-1.30;100.00;98548.70;109622;1251;75483;-66
2023/11/20 08:27:20;;;;;;;9.20;7.80;;;;;;;-1.28;100.00;98549.98;109729;1250;66744;-67
2023/11/20 08:29:47;;;;;;;8.80;7.90;;;;;;;-1.23;100.00;98544.54;109628;1250;72649;-67
2023/11/20 08:32:14;;;;;;;9.60;8.60;;;;;;;-1.17;100.00;98542.05;109654;1251;59253;-67
2023/11/20 08:34:40;;;;;;;9.90;8.90;;;;;;;-1.12;100.00;98543.67;109605;1250;58973;-67
2023/11/20 08:37:07;;;;;;;8.80;8.00;;;;;;;-1.07;100.00;98542.05;109712;1250;73348;-68
2023/11/20 08:39:35;;;;;;;9.40;8.30;;;;;;;-1.04;100.00;98542.69;109679;1250;66596;-66
2023/11/20 08:42:03;;;;;;;10.90;9.70;;;;;;;-1.02;100.00;98541.02;109689;1250;72381;-66
2023/11/20 08:44:29;;;;;;;9.40;8.00;;;;;;;-1.01;100.00;98536.87;109605;1250;61136;-66
2023/11/20 08:46:56;;;;;;;11.00;9.20;;;;;;;-1.01;100.00;98535.30;109601;1250;60138;-67
2023/11/20 08:49:22;;;;;;;8.80;7.70;;;;;;;-1.00;100.00;98529.00;109628;1250;75435;-67
2023/11/20 08:51:49;;;;;;;10.50;9.30;;;;;;;-1.01;100.00;98536.34;109677;1250;66562;-67
2023/11/20 08:54:28;;;;;;;11.30;9.90;;;;;;;-1.02;100.00;98528.65;109558;1251;72564;-67
2023/11/20 08:56:55;;;;;;;8.90;8.00;;;;;;;-1.01;100.00;98520.23;109539;1250;60858;-67
2023/11/20 08:59:21;;;;;;;10.80;8.80;;;;;;;-0.97;100.00;98526.83;109694;1250;59256;-67
2023/11/20 09:01:48;;;;;;;9.60;8.60;;;;;;;-0.97;100.00;98522.69;109682;1250;73452;-67
2023/11/20 09:04:15;;;;;;;12.20;8.60;;;;;;;-0.98;100.00;98521.21;109649;1251;66734;-67
2023/11/20 09:06:43;;;;;;;8.90;8.00;;;;;;;-0.96;100.00;98522.20;109580;1251;71348;-67
2023/11/20 09:09:09;;;;;;;9.60;8.70;;;;;;;-0.93;100.00;98522.14;109562;1250;59034;-67
2023/11/20 09:11:36;;;;;;;9.40;8.40;;;;;;;-0.93;100.00;98524.21;109647;1251;61380;-67
2023/11/20 09:14:02;;;;;;;8.70;7.90;;;;;;;-0.97;100.00;98520.19;109610;1250;58875;-67
2023/11/20 09:16:29;;;;;;;9.40;8.00;;;;;;;-1.02;100.00;98513.95;109638;1250;66077;-67
2023/11/20 09:18:56;;;;;;;9.10;8.20;;;;;;;-1.02;100.00;98514.66;109604;1250;71450;-67
2023/11/20 09:21:23;;;;;;;10.30;7.90;;;;;;;-1.03;100.00;98510.26;109614;1250;59469;-67
2023/11/20 09:23:50;;;;;;;8.70;7.90;;;;;;;-1.04;100.00;98506.70;109640;1250;59094;-67
2023/11/20 09:26:16;;;;;;;9.00;7.90;;;;;;;-1.01;100.00;98501.42;109615;1250;73625;-66
2023/11/20 09:28:43;;;;;;;9.20;8.20;;;;;;;-0.97;100.00;98506.30;109670;1250;66466;-66
2023/11/20 09:31:20;;;;;;;10.10;7.90;;;;;;;-0.94;100.00;98504.48;109639;1250;72783;-67
2023/11/20 09:33:48;;;;;;;8.20;7.20;;;;;;;-0.90;100.00;98501.67;109592;1250;59588;-67
2023/11/20 09:36:15;;;;;;;8.40;7.20;;;;;;;-0.83;100.00;98499.45;109634;1250;58898;-67
2023/11/20 09:38:45;;;;;;;8.20;7.40;;;;;;;-0.76;100.00;98499.36;109648;1251;74593;-67
2023/11/20 09:41:12;;;;;;;8.60;7.60;;;;;;;-0.74;100.00;98499.88;109641;1251;67870;-67
2023/11/20 09:43:38;;;;;;;8.50;7.70;;;;;;;-0.78;100.00;98497.92;109644;1250;70641;-67
2023/11/20 09:46:08;;;;;;;8.00;7.20;;;;;;;-0.82;100.00;98496.04;109614;1250;61198;-67
2023/11/20 09:48:36;;;;;;;8.20;7.40;;;;;;;-0.85;100.00;98492.05;109433;1251;59012;-67
2023/11/20 09:51:02;;;;;;;8.60;7.80;;;;;;;-0.87;100.00;98488.77;109474;1250;74587;-66
2023/11/20 09:53:40;;;;;;;9.00;8.00;;;;;;;-0.90;100.00;98485.30;109456;1251;176434;-66
2023/11/20 09:56:09;;;;;;;8.00;7.10;;;;;;;-0.92;100.00;98481.45;109441;1251;71322;-67
2023/11/20 09:58:36;;;;;;;8.00;6.70;;;;;;;-0.94;100.00;98483.55;109690;1250;61246;-67
2023/11/20 10:01:05;;;;;;;8.40;7.50;;;;;;;-0.94;100.00;98478.71;109639;1250;60609;-67
2023/11/20 10:03:32;;;;;;;8.80;7.80;;;;;;;-0.94;100.00;98477.16;109628;1251;74998;-67
2023/11/20 10:05:59;;;;;;;8.50;6.80;;;;;;;-0.91;100.00;98478.33;109639;1250;67851;-67
2023/11/20 10:08:26;;;;;;;8.80;7.90;;;;;;;-0.87;100.00;98477.05;109660;1250;72578;-67
2023/11/20 10:10:53;;;;;;;8.60;7.70;;;;;;;-0.85;100.00;98473.96;109551;1250;59099;-67
2023/11/20 10:13:20;;;;;;;8.30;7.20;;;;;;;-0.86;100.00;98476.86;109671;1251;59069;-67
2023/11/20 10:15:46;;;;;;;7.40;6.70;;;;;;;-0.88;100.00;98476.33;109686;1250;59431;-67
2023/11/20 10:18:13;;;;;;;7.40;6.60;;;;;;;-0.92;100.00;98473.70;109646;1250;66328;-66
2023/11/20 10:20:49;;;;;;;7.40;6.70;;;;;;;-0.94;100.00;98469.13;109623;1250;72682;-66
2023/11/20 10:23:20;;;;;;;8.10;6.50;;;;;;;-0.95;100.00;98470.93;109613;1250;59610;-67
2023/11/20 10:25:47;;;;;;;11.80;8.50;;;;;;;-0.94;100.00;98473.27;109666;1251;59344;-66
2023/11/20 10:28:14;;;;;;;13.30;7.90;;;;;;;-0.92;100.00;98473.51;109639;1250;73045;-66
2023/11/20 10:30:45;;;;;;;8.20;6.80;;;;;;;-0.91;100.00;98477.98;109548;1250;66589;-66
2023/11/20 10:33:18;;;;;;;8.80;7.20;;;;;;;-0.92;100.00;98479.06;109577;1250;71368;-66
2023/11/20 10:35:46;;;;;;;8.30;6.70;;;;;;;-0.91;100.00;98479.69;109577;1250;59695;-66
2023/11/20 10:38:12;;;;;;;6.70;6.10;;;;;;;-0.93;100.00;98475.86;109624;1251;58836;-66
2023/11/20 10:40:44;;;;;;;6.30;5.70;;;;;;;-0.97;100.00;98470.41;109637;1251;73421;-68
2023/11/20 10:43:11;;;;;;;7.40;6.70;;;;;;;-1.02;100.00;98469.07;109633;1250;67780;-67
2023/11/20 10:45:38;;;;;;;7.50;6.80;;;;;;;-1.05;100.00;98464.98;109630;1251;72512;-66
2023/11/20 10:48:08;;;;;;;8.10;7.00;;;;;;;-1.07;100.00;98467.41;109620;1251;60100;-66
2023/11/20 10:50:35;;;;;;;6.70;6.00;;;;;;;-1.10;100.00;98466.08;109646;1250;59020;-66
2023/11/20 10:53:06;;;;;;;7.40;6.70;;;;;;;-1.11;100.00;98461.83;109584;1250;74467;-66
2023/11/20 10:55:41;;;;;;;7.10;6.40;;;;;;;-1.12;100.00;98457.40;109679;1251;67770;-66
2023/11/20 10:58:09;;;;;;;8.80;6.50;;;;;;;-1.12;100.00;98455.45;109591;1251;71644;-66
2023/11/20 11:00:36;;;;;;;6.70;6.10;;;;;;;-1.11;100.00;98451.21;109586;1250;58956;-66
2023/11/20 11:03:03;;;;;;;6.90;6.30;;;;;;;-1.11;100.00;98451.53;109628;1250;59049;-66
2023/11/20 11:05:43;;;;;;;6.90;6.20;;;;;;;-1.09;100.00;98451.90;109571;1251;73281;-66
2023/11/20 11:08:13;;;;;;;6.00;5.40;;;;;;;-1.07;100.00;98443.22;109445;1251;67285;-66
2023/11/20 11:10:40;;;;;;;6.30;5.70;;;;;;;-1.06;100.00;98441.94;109638;1250;73594;-66
2023/11/20 11:13:08;;;;;;;6.20;5.60;;;;;;;-1.06;100.00;98437.90;109597;1250;59454;-66
2023/11/20 11:15:35;;;;;;;7.20;6.50;;;;;;;-1.06;100.00;98433.02;109648;1250;58892;-68